sensor_id;sensor_type;location;lat;lon;timestamp;P1;durP1;ratioP1;P2;durP2;ratioP2
4529;SDS011;2277;51.626;7.516;2023-02-28T00:01:22;3.17;;;1.83;;
4529;SDS011;2277;51.626;7.516;2023-02-28T00:03:48;1.87;;;1.77;;
4529;SDS011;2277;51.626;7.516;2023-02-28T00:06:14;1.40;;;1.20;;
4529;SDS011;2277;51.626;7.516;2023-02-28T00:08:39;1.80;;;1.70;;
4529;SDS011;2277;51.626;7.516;2023-02-28T00:11:06;1.60;;;1.50;;
4529;SDS011;2277;51.626;7.516;2023-02-28T00:13:38;2.00;;;1.80;;
4529;SDS011;2277;51.626;7.516;2023-02-28T00:16:07;3.13;;;2.37;;
4529;SDS011;2277;51.626;7.516;2023-02-28T00:18:36;1.97;;;1.70;;
4529;SDS011;2277;51.626;7.516;2023-02-28T00:21:02;4.37;;;1.47;;
4529;SDS011;2277;51.626;7.516;2023-02-28T00:23:28;1.67;;;1.57;;
4529;SDS011;2277;51.626;7.516;2023-02-28T00:25:55;4.43;;;2.23;;
4529;SDS011;2277;51.626;7.516;2023-02-28T00:28:21;4.03;;;3.30;;
4529;SDS011;2277;51.626;7.516;2023-02-28T00:30:47;1.97;;;1.37;;
4529;SDS011;2277;51.626;7.516;2023-02-28T00:33:13;3.73;;;2.03;;
4529;SDS011;2277;51.626;7.516;2023-02-28T00:35:39;1.80;;;1.30;;
4529;SDS011;2277;51.626;7.516;2023-02-28T00:38:05;1.80;;;1.70;;
4529;SDS011;2277;51.626;7.516;2023-02-28T00:40:30;1.70;;;1.60;;
4529;SDS011;2277;51.626;7.516;2023-02-28T00:42:56;1.47;;;1.37;;
4529;SDS011;2277;51.626;7.516;2023-02-28T00:45:22;1.60;;;1.50;;
4529;SDS011;2277;51.626;7.516;2023-02-28T00:47:48;2.70;;;1.93;;
4529;SDS011;2277;51.626;7.516;2023-02-28T00:50:16;1.57;;;1.30;;
4529;SDS011;2277;51.626;7.516;2023-02-28T00:52:43;1.10;;;0.90;;
4529;SDS011;2277;51.626;7.516;2023-02-28T00:55:09;2.40;;;1.23;;
4529;SDS011;2277;51.626;7.516;2023-02-28T00:57:34;1.50;;;1.37;;
4529;SDS011;2277;51.626;7.516;2023-02-28T01:00:00;3.70;;;1.70;;
4529;SDS011;2277;51.626;7.516;2023-02-28T01:02:26;2.10;;;1.90;;
4529;SDS011;2277;51.626;7.516;2023-02-28T01:04:52;1.77;;;1.67;;
4529;SDS011;2277;51.626;7.516;2023-02-28T01:07:17;2.27;;;1.30;;
4529;SDS011;2277;51.626;7.516;2023-02-28T01:09:43;3.87;;;2.10;;
4529;SDS011;2277;51.626;7.516;2023-02-28T01:12:08;2.40;;;1.30;;
4529;SDS011;2277;51.626;7.516;2023-02-28T01:14:34;4.43;;;3.47;;
4529;SDS011;2277;51.626;7.516;2023-02-28T01:17:00;2.83;;;1.83;;
4529;SDS011;2277;51.626;7.516;2023-02-28T01:19:26;1.80;;;1.70;;
4529;SDS011;2277;51.626;7.516;2023-02-28T01:21:52;2.57;;;2.37;;
4529;SDS011;2277;51.626;7.516;2023-02-28T01:24:18;2.17;;;1.97;;
4529;SDS011;2277;51.626;7.516;2023-02-28T01:26:44;2.07;;;1.97;;
4529;SDS011;2277;51.626;7.516;2023-02-28T01:29:09;1.90;;;1.50;;
4529;SDS011;2277;51.626;7.516;2023-02-28T01:31:35;1.80;;;1.70;;
4529;SDS011;2277;51.626;7.516;2023-02-28T01:34:01;6.43;;;4.00;;
4529;SDS011;2277;51.626;7.516;2023-02-28T01:36:26;2.53;;;1.57;;
4529;SDS011;2277;51.626;7.516;2023-02-28T01:38:52;1.70;;;1.60;;
4529;SDS011;2277;51.626;7.516;2023-02-28T01:41:23;2.57;;;2.30;;
4529;SDS011;2277;51.626;7.516;2023-02-28T01:43:57;1.47;;;1.37;;
4529;SDS011;2277;51.626;7.516;2023-02-28T01:46:28;2.50;;;2.30;;
4529;SDS011;2277;51.626;7.516;2023-02-28T01:48:56;5.43;;;2.23;;
4529;SDS011;2277;51.626;7.516;2023-02-28T01:51:29;1.83;;;1.40;;
4529;SDS011;2277;51.626;7.516;2023-02-28T01:54:16;2.10;;;1.57;;
4529;SDS011;2277;51.626;7.516;2023-02-28T01:56:48;1.40;;;1.30;;
4529;SDS011;2277;51.626;7.516;2023-02-28T01:59:32;1.90;;;1.70;;
4529;SDS011;2277;51.626;7.516;2023-02-28T02:01:59;2.40;;;2.20;;
4529;SDS011;2277;51.626;7.516;2023-02-28T02:04:27;1.73;;;1.63;;
4529;SDS011;2277;51.626;7.516;2023-02-28T02:06:59;1.67;;;1.57;;
4529;SDS011;2277;51.626;7.516;2023-02-28T02:09:25;2.07;;;1.90;;
4529;SDS011;2277;51.626;7.516;2023-02-28T02:11:50;2.23;;;1.40;;
4529;SDS011;2277;51.626;7.516;2023-02-28T02:14:30;3.20;;;2.20;;
4529;SDS011;2277;51.626;7.516;2023-02-28T02:20:22;1.87;;;1.70;;
4529;SDS011;2277;51.626;7.516;2023-02-28T02:23:54;2.30;;;2.20;;
4529;SDS011;2277;51.626;7.516;2023-02-28T02:34:26;2.63;;;1.70;;
4529;SDS011;2277;51.626;7.516;2023-02-28T02:42:53;1.83;;;1.73;;
4529;SDS011;2277;51.626;7.516;2023-02-28T02:45:33;3.23;;;3.03;;
4529;SDS011;2277;51.626;7.516;2023-02-28T02:48:10;5.30;;;1.70;;
4529;SDS011;2277;51.626;7.516;2023-02-28T02:50:42;1.77;;;1.67;;
4529;SDS011;2277;51.626;7.516;2023-02-28T02:53:10;2.20;;;2.00;;
4529;SDS011;2277;51.626;7.516;2023-02-28T02:55:40;2.40;;;1.80;;
4529;SDS011;2277;51.626;7.516;2023-02-28T02:58:10;1.87;;;1.37;;
4529;SDS011;2277;51.626;7.516;2023-02-28T03:00:52;2.27;;;2.07;;
4529;SDS011;2277;51.626;7.516;2023-02-28T03:03:22;2.20;;;1.60;;
4529;SDS011;2277;51.626;7.516;2023-02-28T03:05:53;3.70;;;1.93;;
4529;SDS011;2277;51.626;7.516;2023-02-28T03:08:21;2.37;;;1.73;;
4529;SDS011;2277;51.626;7.516;2023-02-28T03:11:06;1.87;;;1.70;;
4529;SDS011;2277;51.626;7.516;2023-02-28T03:25:16;2.67;;;2.17;;
4529;SDS011;2277;51.626;7.516;2023-02-28T03:27:52;2.60;;;2.23;;
4529;SDS011;2277;51.626;7.516;2023-02-28T03:30:27;4.57;;;2.00;;
4529;SDS011;2277;51.626;7.516;2023-02-28T03:33:03;2.27;;;2.07;;
4529;SDS011;2277;51.626;7.516;2023-02-28T03:35:38;1.43;;;1.33;;
4529;SDS011;2277;51.626;7.516;2023-02-28T03:38:16;2.67;;;2.47;;
4529;SDS011;2277;51.626;7.516;2023-02-28T03:40:48;2.03;;;1.93;;
4529;SDS011;2277;51.626;7.516;2023-02-28T03:43:22;2.03;;;1.93;;
4529;SDS011;2277;51.626;7.516;2023-02-28T03:45:53;1.77;;;1.67;;
4529;SDS011;2277;51.626;7.516;2023-02-28T03:48:29;3.13;;;2.03;;
4529;SDS011;2277;51.626;7.516;2023-02-28T03:50:59;2.13;;;1.93;;
4529;SDS011;2277;51.626;7.516;2023-02-28T03:53:38;1.77;;;1.67;;
4529;SDS011;2277;51.626;7.516;2023-02-28T03:58:47;2.10;;;1.63;;
4529;SDS011;2277;51.626;7.516;2023-02-28T04:01:24;2.03;;;1.73;;
4529;SDS011;2277;51.626;7.516;2023-02-28T04:04:01;2.17;;;2.07;;
4529;SDS011;2277;51.626;7.516;2023-02-28T04:06:27;1.63;;;1.53;;
4529;SDS011;2277;51.626;7.516;2023-02-28T04:08:57;2.60;;;2.20;;
4529;SDS011;2277;51.626;7.516;2023-02-28T04:13:48;2.00;;;1.80;;
4529;SDS011;2277;51.626;7.516;2023-02-28T04:16:14;3.03;;;1.60;;
4529;SDS011;2277;51.626;7.516;2023-02-28T04:18:39;5.40;;;2.27;;
4529;SDS011;2277;51.626;7.516;2023-02-28T04:21:06;3.23;;;2.57;;
4529;SDS011;2277;51.626;7.516;2023-02-28T04:23:32;2.27;;;2.07;;
4529;SDS011;2277;51.626;7.516;2023-02-28T04:25:58;2.03;;;1.93;;
4529;SDS011;2277;51.626;7.516;2023-02-28T04:28:23;1.93;;;1.80;;
4529;SDS011;2277;51.626;7.516;2023-02-28T04:30:56;2.13;;;1.97;;
4529;SDS011;2277;51.626;7.516;2023-02-28T04:33:23;2.37;;;2.17;;
4529;SDS011;2277;51.626;7.516;2023-02-28T04:35:57;1.87;;;1.77;;
4529;SDS011;2277;51.626;7.516;2023-02-28T04:38:28;2.47;;;2.27;;
4529;SDS011;2277;51.626;7.516;2023-02-28T04:40:56;2.50;;;1.97;;
4529;SDS011;2277;51.626;7.516;2023-02-28T04:43:22;1.83;;;1.73;;
4529;SDS011;2277;51.626;7.516;2023-02-28T04:45:48;2.00;;;1.80;;
4529;SDS011;2277;51.626;7.516;2023-02-28T04:48:14;2.10;;;2.00;;
4529;SDS011;2277;51.626;7.516;2023-02-28T04:50:39;2.00;;;1.87;;
4529;SDS011;2277;51.626;7.516;2023-02-28T04:53:05;2.70;;;2.37;;
4529;SDS011;2277;51.626;7.516;2023-02-28T04:55:31;2.80;;;2.50;;
4529;SDS011;2277;51.626;7.516;2023-02-28T04:57:56;1.87;;;1.67;;
4529;SDS011;2277;51.626;7.516;2023-02-28T05:00:23;3.93;;;3.63;;
4529;SDS011;2277;51.626;7.516;2023-02-28T05:02:50;3.67;;;2.53;;
4529;SDS011;2277;51.626;7.516;2023-02-28T05:05:15;1.87;;;1.77;;
4529;SDS011;2277;51.626;7.516;2023-02-28T05:07:43;1.80;;;1.70;;
4529;SDS011;2277;51.626;7.516;2023-02-28T05:10:09;2.83;;;2.63;;
4529;SDS011;2277;51.626;7.516;2023-02-28T05:12:35;2.10;;;1.90;;
4529;SDS011;2277;51.626;7.516;2023-02-28T05:15:01;1.57;;;1.43;;
4529;SDS011;2277;51.626;7.516;2023-02-28T05:17:27;1.90;;;1.80;;
4529;SDS011;2277;51.626;7.516;2023-02-28T05:19:53;2.80;;;2.57;;
4529;SDS011;2277;51.626;7.516;2023-02-28T05:22:19;2.60;;;1.80;;
4529;SDS011;2277;51.626;7.516;2023-02-28T05:24:44;1.93;;;1.83;;
4529;SDS011;2277;51.626;7.516;2023-02-28T05:27:10;3.33;;;1.93;;
4529;SDS011;2277;51.626;7.516;2023-02-28T05:29:36;2.53;;;2.33;;
4529;SDS011;2277;51.626;7.516;2023-02-28T05:32:07;5.43;;;4.83;;
4529;SDS011;2277;51.626;7.516;2023-02-28T05:34:36;3.20;;;2.93;;
4529;SDS011;2277;51.626;7.516;2023-02-28T05:37:03;4.37;;;2.80;;
4529;SDS011;2277;51.626;7.516;2023-02-28T05:39:29;3.40;;;2.87;;
4529;SDS011;2277;51.626;7.516;2023-02-28T05:41:54;9.53;;;3.83;;
4529;SDS011;2277;51.626;7.516;2023-02-28T05:44:20;8.03;;;4.13;;
4529;SDS011;2277;51.626;7.516;2023-02-28T05:46:45;5.17;;;4.10;;
4529;SDS011;2277;51.626;7.516;2023-02-28T05:49:11;9.90;;;3.70;;
4529;SDS011;2277;51.626;7.516;2023-02-28T05:51:37;10.83;;;3.07;;
4529;SDS011;2277;51.626;7.516;2023-02-28T05:54:04;3.60;;;3.30;;
4529;SDS011;2277;51.626;7.516;2023-02-28T05:56:30;9.20;;;3.33;;
4529;SDS011;2277;51.626;7.516;2023-02-28T05:58:56;7.37;;;3.47;;
4529;SDS011;2277;51.626;7.516;2023-02-28T06:01:36;4.03;;;3.20;;
4529;SDS011;2277;51.626;7.516;2023-02-28T06:04:04;2.90;;;2.70;;
4529;SDS011;2277;51.626;7.516;2023-02-28T06:06:31;4.17;;;3.87;;
4529;SDS011;2277;51.626;7.516;2023-02-28T06:08:59;5.10;;;4.70;;
4529;SDS011;2277;51.626;7.516;2023-02-28T06:11:25;3.23;;;2.93;;
4529;SDS011;2277;51.626;7.516;2023-02-28T06:13:56;7.93;;;4.03;;
4529;SDS011;2277;51.626;7.516;2023-02-28T06:16:24;5.07;;;4.43;;
4529;SDS011;2277;51.626;7.516;2023-02-28T06:18:50;4.23;;;3.83;;
4529;SDS011;2277;51.626;7.516;2023-02-28T06:21:17;6.30;;;4.20;;
4529;SDS011;2277;51.626;7.516;2023-02-28T06:23:43;4.70;;;4.30;;
4529;SDS011;2277;51.626;7.516;2023-02-28T06:26:09;2.53;;;2.33;;
4529;SDS011;2277;51.626;7.516;2023-02-28T06:28:35;4.70;;;4.40;;
4529;SDS011;2277;51.626;7.516;2023-02-28T06:31:05;4.07;;;3.67;;
4529;SDS011;2277;51.626;7.516;2023-02-28T06:33:40;12.73;;;3.43;;
4529;SDS011;2277;51.626;7.516;2023-02-28T06:36:07;4.80;;;3.47;;
4529;SDS011;2277;51.626;7.516;2023-02-28T06:38:34;3.23;;;2.93;;
4529;SDS011;2277;51.626;7.516;2023-02-28T06:41:00;4.00;;;3.57;;
4529;SDS011;2277;51.626;7.516;2023-02-28T06:43:29;3.63;;;3.07;;
4529;SDS011;2277;51.626;7.516;2023-02-28T06:45:57;4.27;;;4.00;;
4529;SDS011;2277;51.626;7.516;2023-02-28T06:48:26;5.70;;;4.70;;
4529;SDS011;2277;51.626;7.516;2023-02-28T06:50:52;3.63;;;3.43;;
4529;SDS011;2277;51.626;7.516;2023-02-28T06:53:28;5.67;;;5.17;;
4529;SDS011;2277;51.626;7.516;2023-02-28T06:55:53;3.33;;;3.03;;
4529;SDS011;2277;51.626;7.516;2023-02-28T06:58:19;3.73;;;3.43;;
4529;SDS011;2277;51.626;7.516;2023-02-28T07:00:44;3.50;;;3.20;;
4529;SDS011;2277;51.626;7.516;2023-02-28T07:03:11;7.30;;;4.23;;
4529;SDS011;2277;51.626;7.516;2023-02-28T07:05:37;6.33;;;4.20;;
4529;SDS011;2277;51.626;7.516;2023-02-28T07:08:04;4.80;;;4.40;;
4529;SDS011;2277;51.626;7.516;2023-02-28T07:10:33;31.93;;;5.00;;
4529;SDS011;2277;51.626;7.516;2023-02-28T07:13:02;5.20;;;3.53;;
4529;SDS011;2277;51.626;7.516;2023-02-28T07:15:29;6.30;;;4.63;;
4529;SDS011;2277;51.626;7.516;2023-02-28T07:17:54;3.77;;;3.43;;
4529;SDS011;2277;51.626;7.516;2023-02-28T07:20:21;5.00;;;4.60;;
4529;SDS011;2277;51.626;7.516;2023-02-28T07:22:47;5.50;;;3.90;;
4529;SDS011;2277;51.626;7.516;2023-02-28T07:25:20;3.23;;;2.93;;
4529;SDS011;2277;51.626;7.516;2023-02-28T07:27:46;11.10;;;4.40;;
4529;SDS011;2277;51.626;7.516;2023-02-28T07:30:12;7.83;;;5.40;;
4529;SDS011;2277;51.626;7.516;2023-02-28T07:32:38;8.63;;;7.83;;
4529;SDS011;2277;51.626;7.516;2023-02-28T07:35:04;4.63;;;4.10;;
4529;SDS011;2277;51.626;7.516;2023-02-28T07:37:30;5.20;;;4.03;;
4529;SDS011;2277;51.626;7.516;2023-02-28T07:40:02;4.37;;;3.97;;
4529;SDS011;2277;51.626;7.516;2023-02-28T07:42:31;4.60;;;4.20;;
4529;SDS011;2277;51.626;7.516;2023-02-28T07:44:57;9.17;;;7.57;;
4529;SDS011;2277;51.626;7.516;2023-02-28T07:47:23;9.17;;;6.20;;
4529;SDS011;2277;51.626;7.516;2023-02-28T07:49:49;3.93;;;3.63;;
4529;SDS011;2277;51.626;7.516;2023-02-28T07:52:15;5.43;;;4.30;;
4529;SDS011;2277;51.626;7.516;2023-02-28T07:54:40;4.23;;;3.93;;
4529;SDS011;2277;51.626;7.516;2023-02-28T07:57:06;6.83;;;4.97;;
4529;SDS011;2277;51.626;7.516;2023-02-28T07:59:31;5.23;;;3.80;;
4529;SDS011;2277;51.626;7.516;2023-02-28T08:01:57;4.30;;;2.97;;
4529;SDS011;2277;51.626;7.516;2023-02-28T08:04:24;4.33;;;3.43;;
4529;SDS011;2277;51.626;7.516;2023-02-28T08:06:49;4.53;;;3.40;;
4529;SDS011;2277;51.626;7.516;2023-02-28T08:09:17;6.43;;;3.00;;
4529;SDS011;2277;51.626;7.516;2023-02-28T08:11:42;5.70;;;3.60;;
4529;SDS011;2277;51.626;7.516;2023-02-28T08:14:08;5.20;;;3.23;;
4529;SDS011;2277;51.626;7.516;2023-02-28T08:16:33;4.43;;;3.70;;
4529;SDS011;2277;51.626;7.516;2023-02-28T08:18:59;4.10;;;2.97;;
4529;SDS011;2277;51.626;7.516;2023-02-28T08:21:24;3.90;;;3.43;;
4529;SDS011;2277;51.626;7.516;2023-02-28T08:23:50;3.97;;;3.60;;
4529;SDS011;2277;51.626;7.516;2023-02-28T08:26:16;3.87;;;2.67;;
4529;SDS011;2277;51.626;7.516;2023-02-28T08:28:42;2.20;;;2.00;;
4529;SDS011;2277;51.626;7.516;2023-02-28T08:31:09;3.93;;;3.43;;
4529;SDS011;2277;51.626;7.516;2023-02-28T08:33:37;4.00;;;3.67;;
4529;SDS011;2277;51.626;7.516;2023-02-28T08:36:04;3.67;;;3.27;;
4529;SDS011;2277;51.626;7.516;2023-02-28T08:38:30;3.20;;;2.80;;
4529;SDS011;2277;51.626;7.516;2023-02-28T08:40:56;2.80;;;2.33;;
4529;SDS011;2277;51.626;7.516;2023-02-28T08:43:27;17.40;;;7.40;;
4529;SDS011;2277;51.626;7.516;2023-02-28T08:45:54;8.23;;;4.67;;
4529;SDS011;2277;51.626;7.516;2023-02-28T08:48:22;7.30;;;3.10;;
4529;SDS011;2277;51.626;7.516;2023-02-28T08:50:55;3.57;;;3.27;;
4529;SDS011;2277;51.626;7.516;2023-02-28T08:53:32;8.47;;;3.47;;
4529;SDS011;2277;51.626;7.516;2023-02-28T08:56:02;3.13;;;2.10;;
4529;SDS011;2277;51.626;7.516;2023-02-28T08:58:30;3.87;;;2.87;;
4529;SDS011;2277;51.626;7.516;2023-02-28T09:00:56;3.17;;;2.97;;
4529;SDS011;2277;51.626;7.516;2023-02-28T09:03:22;2.47;;;2.27;;
4529;SDS011;2277;51.626;7.516;2023-02-28T09:05:55;5.43;;;4.13;;
4529;SDS011;2277;51.626;7.516;2023-02-28T09:08:22;4.47;;;2.50;;
4529;SDS011;2277;51.626;7.516;2023-02-28T09:10:48;2.87;;;2.63;;
4529;SDS011;2277;51.626;7.516;2023-02-28T09:13:14;2.07;;;1.90;;
4529;SDS011;2277;51.626;7.516;2023-02-28T09:15:40;5.03;;;2.50;;
4529;SDS011;2277;51.626;7.516;2023-02-28T09:18:05;2.63;;;2.43;;
4529;SDS011;2277;51.626;7.516;2023-02-28T09:20:31;3.83;;;2.07;;
4529;SDS011;2277;51.626;7.516;2023-02-28T09:22:56;3.40;;;2.40;;
4529;SDS011;2277;51.626;7.516;2023-02-28T09:25:22;2.60;;;2.40;;
4529;SDS011;2277;51.626;7.516;2023-02-28T09:27:47;2.30;;;2.10;;
4529;SDS011;2277;51.626;7.516;2023-02-28T09:30:13;3.10;;;1.53;;
4529;SDS011;2277;51.626;7.516;2023-02-28T09:32:39;2.03;;;1.77;;
4529;SDS011;2277;51.626;7.516;2023-02-28T09:35:05;2.10;;;1.90;;
4529;SDS011;2277;51.626;7.516;2023-02-28T09:37:31;2.33;;;2.13;;
4529;SDS011;2277;51.626;7.516;2023-02-28T09:39:57;4.13;;;3.50;;
4529;SDS011;2277;51.626;7.516;2023-02-28T09:42:25;5.90;;;2.83;;
4529;SDS011;2277;51.626;7.516;2023-02-28T09:44:56;12.00;;;3.43;;
4529;SDS011;2277;51.626;7.516;2023-02-28T09:47:40;2.80;;;2.60;;
4529;SDS011;2277;51.626;7.516;2023-02-28T09:52:58;3.30;;;3.00;;
4529;SDS011;2277;51.626;7.516;2023-02-28T09:55:30;2.77;;;1.73;;
4529;SDS011;2277;51.626;7.516;2023-02-28T09:58:02;6.50;;;1.90;;
4529;SDS011;2277;51.626;7.516;2023-02-28T10:00:36;1.90;;;1.70;;
4529;SDS011;2277;51.626;7.516;2023-02-28T10:08:19;2.13;;;1.93;;
4529;SDS011;2277;51.626;7.516;2023-02-28T10:10:51;2.57;;;1.40;;
4529;SDS011;2277;51.626;7.516;2023-02-28T10:13:25;2.10;;;1.00;;
4529;SDS011;2277;51.626;7.516;2023-02-28T10:16:37;1.93;;;1.80;;
4529;SDS011;2277;51.626;7.516;2023-02-28T10:19:11;3.50;;;3.20;;
4529;SDS011;2277;51.626;7.516;2023-02-28T10:21:44;1.90;;;1.10;;
4529;SDS011;2277;51.626;7.516;2023-02-28T10:27:15;2.10;;;1.90;;
4529;SDS011;2277;51.626;7.516;2023-02-28T10:29:53;3.40;;;1.60;;
4529;SDS011;2277;51.626;7.516;2023-02-28T10:32:25;1.80;;;1.57;;
4529;SDS011;2277;51.626;7.516;2023-02-28T10:34:55;1.30;;;1.20;;
4529;SDS011;2277;51.626;7.516;2023-02-28T10:37:32;1.40;;;1.30;;
4529;SDS011;2277;51.626;7.516;2023-02-28T10:40:03;2.77;;;1.57;;
4529;SDS011;2277;51.626;7.516;2023-02-28T10:42:30;1.67;;;1.57;;
4529;SDS011;2277;51.626;7.516;2023-02-28T10:47:48;1.40;;;1.30;;
4529;SDS011;2277;51.626;7.516;2023-02-28T10:52:54;1.40;;;1.20;;
4529;SDS011;2277;51.626;7.516;2023-02-28T10:55:21;2.03;;;1.40;;
4529;SDS011;2277;51.626;7.516;2023-02-28T10:57:50;1.27;;;1.10;;
4529;SDS011;2277;51.626;7.516;2023-02-28T11:00:20;2.80;;;1.90;;
4529;SDS011;2277;51.626;7.516;2023-02-28T11:02:50;1.37;;;1.17;;
4529;SDS011;2277;51.626;7.516;2023-02-28T11:08:28;1.63;;;1.30;;
4529;SDS011;2277;51.626;7.516;2023-02-28T11:10:48;3.17;;;1.63;;
4529;SDS011;2277;51.626;7.516;2023-02-28T11:13:21;2.20;;;1.30;;
4529;SDS011;2277;51.626;7.516;2023-02-28T11:15:57;1.77;;;1.67;;
4529;SDS011;2277;51.626;7.516;2023-02-28T11:21:08;1.97;;;1.30;;
4529;SDS011;2277;51.626;7.516;2023-02-28T11:23:40;1.40;;;1.20;;
4529;SDS011;2277;51.626;7.516;2023-02-28T11:26:06;2.40;;;1.60;;
4529;SDS011;2277;51.626;7.516;2023-02-28T11:28:36;1.67;;;1.53;;
4529;SDS011;2277;51.626;7.516;2023-02-28T11:36:14;1.37;;;1.13;;
4529;SDS011;2277;51.626;7.516;2023-02-28T11:38:50;1.30;;;1.10;;
4529;SDS011;2277;51.626;7.516;2023-02-28T11:41:35;1.80;;;1.70;;
4529;SDS011;2277;51.626;7.516;2023-02-28T11:47:06;2.17;;;1.50;;
4529;SDS011;2277;51.626;7.516;2023-02-28T11:49:49;2.40;;;1.50;;
4529;SDS011;2277;51.626;7.516;2023-02-28T12:01:15;2.53;;;1.37;;
4529;SDS011;2277;51.626;7.516;2023-02-28T12:03:45;4.90;;;1.90;;
4529;SDS011;2277;51.626;7.516;2023-02-28T12:11:55;1.47;;;1.33;;
4529;SDS011;2277;51.626;7.516;2023-02-28T12:14:30;1.60;;;1.50;;
4529;SDS011;2277;51.626;7.516;2023-02-28T12:23:19;3.53;;;1.97;;
4529;SDS011;2277;51.626;7.516;2023-02-28T12:28:13;2.20;;;1.83;;
4529;SDS011;2277;51.626;7.516;2023-02-28T12:33:47;2.03;;;1.83;;
4529;SDS011;2277;51.626;7.516;2023-02-28T12:36:18;2.77;;;1.37;;
4529;SDS011;2277;51.626;7.516;2023-02-28T12:46:58;4.47;;;2.03;;
4529;SDS011;2277;51.626;7.516;2023-02-28T12:49:33;1.53;;;1.43;;
4529;SDS011;2277;51.626;7.516;2023-02-28T12:52:04;2.07;;;1.87;;
4529;SDS011;2277;51.626;7.516;2023-02-28T12:59:59;1.73;;;1.63;;
4529;SDS011;2277;51.626;7.516;2023-02-28T13:08:28;1.53;;;1.43;;
4529;SDS011;2277;51.626;7.516;2023-02-28T13:11:23;1.60;;;1.50;;
4529;SDS011;2277;51.626;7.516;2023-02-28T13:13:59;2.30;;;1.87;;
4529;SDS011;2277;51.626;7.516;2023-02-28T13:16:26;1.50;;;1.30;;
4529;SDS011;2277;51.626;7.516;2023-02-28T13:18:52;2.30;;;1.67;;
4529;SDS011;2277;51.626;7.516;2023-02-28T13:21:33;2.43;;;1.60;;
4529;SDS011;2277;51.626;7.516;2023-02-28T13:24:08;1.60;;;1.30;;
4529;SDS011;2277;51.626;7.516;2023-02-28T13:34:30;2.43;;;1.30;;
4529;SDS011;2277;51.626;7.516;2023-02-28T13:39:54;5.73;;;2.57;;
4529;SDS011;2277;51.626;7.516;2023-02-28T13:47:49;3.40;;;1.90;;
4529;SDS011;2277;51.626;7.516;2023-02-28T13:52:51;5.13;;;1.73;;
4529;SDS011;2277;51.626;7.516;2023-02-28T13:56:23;2.40;;;1.80;;
4529;SDS011;2277;51.626;7.516;2023-02-28T14:01:14;2.07;;;1.87;;
4529;SDS011;2277;51.626;7.516;2023-02-28T14:06:33;2.10;;;1.90;;
4529;SDS011;2277;51.626;7.516;2023-02-28T14:11:37;1.73;;;1.60;;
4529;SDS011;2277;51.626;7.516;2023-02-28T14:14:05;2.03;;;1.93;;
4529;SDS011;2277;51.626;7.516;2023-02-28T14:16:39;2.23;;;1.63;;
4529;SDS011;2277;51.626;7.516;2023-02-28T14:21:56;1.70;;;1.60;;
4529;SDS011;2277;51.626;7.516;2023-02-28T14:35:57;3.30;;;3.00;;
4529;SDS011;2277;51.626;7.516;2023-02-28T14:38:46;3.27;;;2.97;;
4529;SDS011;2277;51.626;7.516;2023-02-28T14:41:30;2.43;;;1.60;;
4529;SDS011;2277;51.626;7.516;2023-02-28T14:44:20;2.50;;;1.80;;
4529;SDS011;2277;51.626;7.516;2023-02-28T14:46:52;2.40;;;1.67;;
4529;SDS011;2277;51.626;7.516;2023-02-28T14:49:27;4.60;;;1.70;;
4529;SDS011;2277;51.626;7.516;2023-02-28T14:52:03;3.33;;;2.63;;
4529;SDS011;2277;51.626;7.516;2023-02-28T14:54:30;1.97;;;1.77;;
4529;SDS011;2277;51.626;7.516;2023-02-28T14:56:56;1.43;;;1.33;;
4529;SDS011;2277;51.626;7.516;2023-02-28T14:59:29;2.53;;;1.90;;
4529;SDS011;2277;51.626;7.516;2023-02-28T15:07:41;2.43;;;2.23;;
4529;SDS011;2277;51.626;7.516;2023-02-28T15:13:00;4.10;;;2.83;;
4529;SDS011;2277;51.626;7.516;2023-02-28T15:18:07;3.83;;;3.53;;
4529;SDS011;2277;51.626;7.516;2023-02-28T15:20:40;1.90;;;1.70;;
4529;SDS011;2277;51.626;7.516;2023-02-28T15:23:08;2.13;;;2.03;;
4529;SDS011;2277;51.626;7.516;2023-02-28T15:25:35;2.37;;;1.60;;
4529;SDS011;2277;51.626;7.516;2023-02-28T15:28:01;6.47;;;3.30;;
4529;SDS011;2277;51.626;7.516;2023-02-28T15:30:28;3.07;;;2.83;;
4529;SDS011;2277;51.626;7.516;2023-02-28T15:33:05;1.43;;;1.33;;
4529;SDS011;2277;51.626;7.516;2023-02-28T15:35:33;1.93;;;1.77;;
4529;SDS011;2277;51.626;7.516;2023-02-28T15:40:30;2.13;;;1.73;;
4529;SDS011;2277;51.626;7.516;2023-02-28T15:48:03;2.63;;;2.43;;
4529;SDS011;2277;51.626;7.516;2023-02-28T15:50:30;4.00;;;1.90;;
4529;SDS011;2277;51.626;7.516;2023-02-28T15:52:56;2.40;;;2.10;;
4529;SDS011;2277;51.626;7.516;2023-02-28T15:55:23;3.40;;;1.77;;
4529;SDS011;2277;51.626;7.516;2023-02-28T15:57:53;2.27;;;2.03;;
4529;SDS011;2277;51.626;7.516;2023-02-28T16:00:22;2.90;;;2.57;;
4529;SDS011;2277;51.626;7.516;2023-02-28T16:02:50;4.90;;;2.47;;
4529;SDS011;2277;51.626;7.516;2023-02-28T16:05:19;3.20;;;2.33;;
4529;SDS011;2277;51.626;7.516;2023-02-28T16:07:53;2.03;;;1.53;;
4529;SDS011;2277;51.626;7.516;2023-02-28T16:10:20;2.03;;;1.70;;
4529;SDS011;2277;51.626;7.516;2023-02-28T16:12:50;1.73;;;1.50;;
4529;SDS011;2277;51.626;7.516;2023-02-28T16:17:53;10.27;;;2.03;;
4529;SDS011;2277;51.626;7.516;2023-02-28T16:20:22;2.50;;;2.30;;
4529;SDS011;2277;51.626;7.516;2023-02-28T16:22:49;9.53;;;3.10;;
4529;SDS011;2277;51.626;7.516;2023-02-28T16:25:19;2.57;;;2.37;;
4529;SDS011;2277;51.626;7.516;2023-02-28T16:27:48;3.40;;;2.47;;
4529;SDS011;2277;51.626;7.516;2023-02-28T16:30:17;2.27;;;2.03;;
4529;SDS011;2277;51.626;7.516;2023-02-28T16:32:45;1.90;;;1.40;;
4529;SDS011;2277;51.626;7.516;2023-02-28T16:35:11;3.10;;;2.07;;
4529;SDS011;2277;51.626;7.516;2023-02-28T16:37:39;3.27;;;2.13;;
4529;SDS011;2277;51.626;7.516;2023-02-28T16:40:05;2.50;;;1.80;;
4529;SDS011;2277;51.626;7.516;2023-02-28T16:42:31;2.87;;;2.60;;
4529;SDS011;2277;51.626;7.516;2023-02-28T16:44:57;2.20;;;1.70;;
4529;SDS011;2277;51.626;7.516;2023-02-28T16:47:23;2.07;;;1.87;;
4529;SDS011;2277;51.626;7.516;2023-02-28T16:49:51;3.30;;;2.73;;
4529;SDS011;2277;51.626;7.516;2023-02-28T16:52:17;2.97;;;2.20;;
4529;SDS011;2277;51.626;7.516;2023-02-28T16:54:43;2.10;;;2.00;;
4529;SDS011;2277;51.626;7.516;2023-02-28T16:57:15;4.37;;;2.80;;
4529;SDS011;2277;51.626;7.516;2023-02-28T16:59:47;8.67;;;3.33;;
4529;SDS011;2277;51.626;7.516;2023-02-28T17:02:14;6.83;;;3.00;;
4529;SDS011;2277;51.626;7.516;2023-02-28T17:04:41;2.53;;;2.33;;
4529;SDS011;2277;51.626;7.516;2023-02-28T17:07:11;2.50;;;2.30;;
4529;SDS011;2277;51.626;7.516;2023-02-28T17:09:38;2.17;;;1.97;;
4529;SDS011;2277;51.626;7.516;2023-02-28T17:12:04;1.50;;;1.40;;
4529;SDS011;2277;51.626;7.516;2023-02-28T17:14:29;1.87;;;1.77;;
4529;SDS011;2277;51.626;7.516;2023-02-28T17:16:55;1.80;;;1.70;;
4529;SDS011;2277;51.626;7.516;2023-02-28T17:19:21;5.93;;;2.53;;
4529;SDS011;2277;51.626;7.516;2023-02-28T17:21:46;3.13;;;1.90;;
4529;SDS011;2277;51.626;7.516;2023-02-28T17:24:12;2.13;;;1.93;;
4529;SDS011;2277;51.626;7.516;2023-02-28T17:26:41;3.30;;;2.70;;
4529;SDS011;2277;51.626;7.516;2023-02-28T17:29:17;3.70;;;2.20;;
4529;SDS011;2277;51.626;7.516;2023-02-28T17:31:44;5.63;;;2.17;;
4529;SDS011;2277;51.626;7.516;2023-02-28T17:34:10;2.00;;;1.70;;
4529;SDS011;2277;51.626;7.516;2023-02-28T17:36:36;3.10;;;2.40;;
4529;SDS011;2277;51.626;7.516;2023-02-28T17:39:03;1.90;;;1.70;;
4529;SDS011;2277;51.626;7.516;2023-02-28T17:41:33;3.00;;;2.50;;
4529;SDS011;2277;51.626;7.516;2023-02-28T17:43:59;3.40;;;3.20;;
4529;SDS011;2277;51.626;7.516;2023-02-28T17:46:24;3.40;;;2.20;;
4529;SDS011;2277;51.626;7.516;2023-02-28T17:48:52;3.37;;;2.30;;
4529;SDS011;2277;51.626;7.516;2023-02-28T17:51:18;1.97;;;1.87;;
4529;SDS011;2277;51.626;7.516;2023-02-28T17:53:46;4.90;;;3.27;;
4529;SDS011;2277;51.626;7.516;2023-02-28T17:56:12;2.50;;;2.30;;
4529;SDS011;2277;51.626;7.516;2023-02-28T17:58:43;1.70;;;1.50;;
4529;SDS011;2277;51.626;7.516;2023-02-28T18:01:09;2.63;;;2.43;;
4529;SDS011;2277;51.626;7.516;2023-02-28T18:03:35;5.90;;;3.30;;
4529;SDS011;2277;51.626;7.516;2023-02-28T18:06:01;2.90;;;2.10;;
4529;SDS011;2277;51.626;7.516;2023-02-28T18:08:27;3.03;;;2.80;;
4529;SDS011;2277;51.626;7.516;2023-02-28T18:10:53;3.87;;;3.57;;
4529;SDS011;2277;51.626;7.516;2023-02-28T18:13:19;8.33;;;2.67;;
4529;SDS011;2277;51.626;7.516;2023-02-28T18:15:44;1.93;;;1.83;;
4529;SDS011;2277;51.626;7.516;2023-02-28T18:18:10;4.53;;;4.13;;
4529;SDS011;2277;51.626;7.516;2023-02-28T18:20:36;2.80;;;2.57;;